Birchington, United Kingdom
Current Conditions -  °F | °C
As of 1:20 AM on Tuesday 25 Nov 2014 (Local Time) from EGMC Reporting Station
Light Fog Light Fog  
Wind Chill: 30°   Ceiling: Unl
Heat Index: 30°   Visibility: 0.87mi
Dew Point: 28°   Wind: 0mph
Humidity: 93%   Direction: NA
Pressure: 30.3"   Gusts: NA
Location:  51.37°N, 1.31°E
Report Text: EGMC 250120Z 00000KT 1400 R06/0300 R24/0125 MIFG BR NSC M01/M02 Q1026
Loading
Personal Weather Stations






























Interactive Weather Map New forecast layout! Learn more

10-Day Weather Forecast

Advertisements
Track Severe Weather on mobile